Sainte-Anne-Du-Lac, Canada
Current Conditions -  °F | °C
As of 9:00 PM on Friday 21 Nov 2014 (Local Time) from CYND Reporting Station
Broken Clouds Broken Clouds  
Wind Chill:   Ceiling: 5000
Heat Index: 16°   Visibility: 15mi
Dew Point: 10°   Wind: 5mph
Humidity: 79%   Direction: 280°W
Pressure: 30.34"   Gusts: NA
Location:  46.87°N, 75.32°W
Report Text: CYND 220200Z 28004KT 15SM BKN050 M09/M12 A3034 RMK SC5 LAST OBS/NEXT 221200 UTC SLP280
Loading
Personal Weather Stations






























Interactive Weather Map New forecast layout! Learn more

10-Day Weather Forecast

Advertisements
Track Severe Weather on mobile